EmailTwitter


Observations de surface / États-Unis / KJFK (74486)

Régions: Québec | Canada | États-Unis | Europe | France | UK | Ailleurs
Station
Affichage
Infos & localisation pour KJFK (74486) | Aide pour décoder les METARs

Observations prises le 2018-04-22 à 21H51 UTC à NEW YORK/JF KENN, NY (KJFK)

Etat du ciel: quelques nuages.

Température: 11.0 Celsius

Point de rosée: -1.0 Celsius

Humidité relative: 43%

Facteur vent: 8.

Vents: Sud à 33 km/h ou 18 noeuds.

Pression au niveau moyen de la mer: 102.78 kilopascals.

Calage altimétrique: 102.78 kilopascals ou 30.35 pouces de mercure.

Visibilité horizontale: 10.00 milles terrestres ou 16.00 kilomètres.

Observation METAR:

KJFK 222151Z 19018KT 10SM FEW250 11/M01 A3035 RMK AO2 SLP278 T01111006=